Time,TemperatureF,DewpointF,PressureIn,WindDirection,WindDirectionDegrees,WindSpeedMPH,WindSpeedGustMPH,Humidity,HourlyPrecipIn,Conditions,Clouds,dailyrainin,SoftwareType,DateUTC
2013-02-23 00:00:00,40.7,35.6,30.21,SSW,203,1.1,2.7,82,0.00,,,0.00,WUHU216HW,2013-02-23 08:00:00,
2013-02-23 00:05:00,40.7,35.8,30.21,SW,225,1.3,2.7,83,0.00,,,0.00,WUHU216HW,2013-02-23 08:05:00,
2013-02-23 00:10:00,40.7,35.8,30.21,SSE,158,1.6,3.6,83,0.00,,,0.00,WUHU216HW,2013-02-23 08:10:00,
2013-02-23 00:15:00,40.7,35.6,30.21,NW,315,1.1,5.1,82,0.00,,,0.00,WUHU216HW,2013-02-23 08:15:00,
2013-02-23 00:20:00,40.7,35.6,30.21,South,180,0.4,5.1,82,0.00,,,0.00,WUHU216HW,2013-02-23 08:20:00,
2013-02-23 00:25:00,40.7,35.6,30.22,SSE,158,1.8,2.5,82,0.00,,,0.00,WUHU216HW,2013-02-23 08:25:00,
2013-02-23 00:30:00,40.7,35.6,30.22,South,180,3.4,3.4,82,0.00,,,0.00,WUHU216HW,2013-02-23 08:30:00,
2013-02-23 00:35:00,40.7,35.8,30.22,South,180,0.2,3.4,83,0.00,,,0.00,WUHU216HW,2013-02-23 08:35:00,
2013-02-23 00:40:00,40.7,35.8,30.22,SSE,158,1.8,3.1,83,0.00,,,0.00,WUHU216HW,2013-02-23 08:40:00,
2013-02-23 00:45:00,40.5,35.4,30.22,WSW,248,1.8,3.1,82,0.00,,,0.00,WUHU216HW,2013-02-23 08:45:00,
2013-02-23 00:50:00,40.5,35.7,30.22,South,180,2.5,4.0,83,0.00,,,0.00,WUHU216HW,2013-02-23 08:50:00,
2013-02-23 00:55:00,40.3,35.2,30.22,NW,315,1.1,4.0,82,0.00,,,0.00,WUHU216HW,2013-02-23 08:55:00,
2013-02-23 01:00:00,40.5,35.4,30.23,South,180,0.7,3.8,82,0.00,,,0.00,WUHU216HW,2013-02-23 09:00:00,
2013-02-23 01:05:00,40.5,35.4,30.22,NE,45,0.4,4.3,82,0.00,,,0.00,WUHU216HW,2013-02-23 09:05:00,
2013-02-23 01:10:00,40.5,35.4,30.23,SSE,158,0.7,4.3,82,0.00,,,0.00,WUHU216HW,2013-02-23 09:10:00,
2013-02-23 01:15:00,40.3,35.2,30.23,South,180,1.1,4.0,82,0.00,,,0.00,WUHU216HW,2013-02-23 09:15:00,
2013-02-23 01:20:00,40.3,35.6,30.23,SSE,158,1.8,2.9,83,0.00,,,0.00,WUHU216HW,2013-02-23 09:20:00,
2013-02-23 01:25:00,40.3,35.6,30.23,SSE,158,1.3,2.9,83,0.00,,,0.00,WUHU216HW,2013-02-23 09:25:00,
2013-02-23 01:30:00,40.3,35.2,30.24,South,180,0.0,3.6,82,0.00,,,0.00,WUHU216HW,2013-02-23 09:30:00,
2013-02-23 01:35:00,40.3,35.6,30.24,NNW,338,1.3,3.6,83,0.00,,,0.00,WUHU216HW,2013-02-23 09:35:00,
2013-02-23 01:40:00,40.3,35.6,30.24,WSW,248,1.1,3.1,83,0.00,,,0.00,WUHU216HW,2013-02-23 09:40:00,
2013-02-23 01:45:00,40.3,35.6,30.24,SSW,203,1.1,3.1,83,0.00,,,0.00,WUHU216HW,2013-02-23 09:45:00,
2013-02-23 01:50:00,40.3,35.6,30.24,South,180,2.5,3.4,83,0.00,,,0.00,WUHU216HW,2013-02-23 09:50:00,
2013-02-23 01:55:00,40.3,35.6,30.24,SW,225,4.0,4.0,83,0.00,,,0.00,WUHU216HW,2013-02-23 09:55:00,
2013-02-23 02:00:00,40.3,35.6,30.25,SE,135,1.3,4.0,83,0.00,,,0.00,WUHU216HW,2013-02-23 10:00:00,
2013-02-23 02:05:00,40.3,35.6,30.25,South,180,2.5,3.6,83,0.00,,,0.00,WUHU216HW,2013-02-23 10:05:00,
2013-02-23 02:10:00,40.3,35.6,30.25,South,180,1.6,3.6,83,0.00,,,0.00,WUHU216HW,2013-02-23 10:10:00,
2013-02-23 02:15:00,40.3,35.6,30.25,SSW,203,0.0,3.4,83,0.00,,,0.00,WUHU216HW,2013-02-23 10:15:00,
2013-02-23 02:20:00,40.5,35.7,30.25,SSW,203,2.0,2.5,83,0.00,,,0.00,WUHU216HW,2013-02-23 10:20:00,
2013-02-23 02:25:00,40.3,35.6,30.26,South,180,5.4,5.4,83,0.00,,,0.00,WUHU216HW,2013-02-23 10:25:00,
2013-02-23 02:30:00,40.3,35.6,30.25,WSW,248,0.2,5.4,83,0.00,,,0.00,WUHU216HW,2013-02-23 10:30:00,
2013-02-23 02:35:00,40.5,36.0,30.25,SSW,203,3.4,3.4,84,0.00,,,0.00,WUHU216HW,2013-02-23 10:35:00,
2013-02-23 02:40:00,40.5,36.0,30.25,SSE,158,0.2,3.4,84,0.00,,,0.00,WUHU216HW,2013-02-23 10:40:00,
2013-02-23 02:45:00,40.5,36.0,30.25,SSW,203,0.4,4.0,84,0.00,,,0.00,WUHU216HW,2013-02-23 10:45:00,
2013-02-23 02:50:00,40.3,35.8,30.25,SSW,203,1.1,4.0,84,0.00,,,0.00,WUHU216HW,2013-02-23 10:50:00,
2013-02-23 02:55:00,40.5,36.0,30.25,West,270,0.0,4.7,84,0.00,,,0.00,WUHU216HW,2013-02-23 10:55:00,
2013-02-23 03:00:00,40.5,36.0,30.25,South,180,4.0,4.7,84,0.00,,,0.00,WUHU216HW,2013-02-23 11:00:00,
2013-02-23 03:05:00,40.5,36.0,30.26,South,180,2.2,4.0,84,0.00,,,0.00,WUHU216HW,2013-02-23 11:05:00,
2013-02-23 03:10:00,40.5,36.0,30.26,ESE,113,0.2,2.7,84,0.00,,,0.00,WUHU216HW,2013-02-23 11:10:00,
2013-02-23 03:15:00,40.5,36.0,30.26,ESE,113,1.3,2.7,84,0.00,,,0.00,WUHU216HW,2013-02-23 11:15:00,
2013-02-23 03:20:00,40.5,36.0,30.26,SW,225,0.7,2.5,84,0.00,,,0.00,WUHU216HW,2013-02-23 11:20:00,
2013-02-23 03:25:00,40.5,36.0,30.27,SSW,203,1.1,1.8,84,0.00,,,0.00,WUHU216HW,2013-02-23 11:25:00,
2013-02-23 03:30:00,40.5,36.0,30.27,WSW,248,1.6,4.0,84,0.00,,,0.00,WUHU216HW,2013-02-23 11:30:00,
2013-02-23 03:35:00,40.5,36.0,30.27,South,180,3.6,4.0,84,0.00,,,0.00,WUHU216HW,2013-02-23 11:35:00,
2013-02-23 03:40:00,40.5,36.0,30.27,South,180,0.4,8.1,84,0.00,,,0.00,WUHU216HW,2013-02-23 11:40:00,
2013-02-23 03:45:00,40.5,36.0,30.27,SE,135,1.1,8.1,84,0.00,,,0.00,WUHU216HW,2013-02-23 11:45:00,
2013-02-23 03:50:00,40.5,36.0,30.27,South,180,0.4,4.7,84,0.00,,,0.00,WUHU216HW,2013-02-23 11:50:00,
2013-02-23 03:55:00,40.3,35.8,30.27,SSW,203,0.7,3.6,84,0.00,,,0.00,WUHU216HW,2013-02-23 11:55:00,
2013-02-23 04:00:00,40.3,35.8,30.27,SSW,203,5.6,6.5,84,0.00,,,0.00,WUHU216HW,2013-02-23 12:00:00,
2013-02-23 04:05:00,40.3,35.8,30.28,South,180,1.6,6.5,84,0.00,,,0.00,WUHU216HW,2013-02-23 12:05:00,
2013-02-23 04:10:00,40.3,35.8,30.29,SE,135,0.2,4.0,84,0.00,,,0.00,WUHU216HW,2013-02-23 12:10:00,
2013-02-23 04:15:00,40.3,35.8,30.28,South,180,2.0,4.0,84,0.00,,,0.00,WUHU216HW,2013-02-23 12:15:00,
2013-02-23 04:20:00,40.1,35.6,30.29,SSW,203,0.4,2.5,84,0.00,,,0.00,WUHU216HW,2013-02-23 12:20:00,
2013-02-23 04:25:00,40.1,35.9,30.29,SSW,203,2.7,6.7,85,0.00,,,0.00,WUHU216HW,2013-02-23 12:25:00,
2013-02-23 04:30:00,40.1,35.9,30.29,South,180,1.6,6.7,85,0.00,,,0.00,WUHU216HW,2013-02-23 12:30:00,
2013-02-23 04:35:00,40.1,35.9,30.29,SSW,203,2.5,3.4,85,0.00,,,0.00,WUHU216HW,2013-02-23 12:35:00,
2013-02-23 04:40:00,40.0,35.8,30.29,SSW,203,0.0,4.3,85,0.00,,,0.00,WUHU216HW,2013-02-23 12:40:00,
2013-02-23 04:45:00,40.0,35.8,30.30,SSW,203,0.4,4.3,85,0.00,,,0.00,WUHU216HW,2013-02-23 12:45:00,
2013-02-23 04:50:00,40.0,35.8,30.30,SSE,158,0.0,3.1,85,0.00,,,0.00,WUHU216HW,2013-02-23 12:50:00,
2013-02-23 04:55:00,40.1,35.9,30.30,WSW,248,0.2,2.2,85,0.00,,,0.00,WUHU216HW,2013-02-23 12:55:00,
2013-02-23 05:00:00,40.1,35.9,30.30,SSW,203,0.9,2.9,85,0.00,,,0.00,WUHU216HW,2013-02-23 13:00:00,
2013-02-23 05:05:00,40.1,35.9,30.31,SSE,158,1.3,2.9,85,0.00,,,0.00,WUHU216HW,2013-02-23 13:05:00,
2013-02-23 05:10:00,40.1,35.9,30.30,South,180,0.0,2.7,85,0.00,,,0.00,WUHU216HW,2013-02-23 13:10:00,
2013-02-23 05:15:00,40.1,35.9,30.31,West,270,0.7,1.1,85,0.00,,,0.00,WUHU216HW,2013-02-23 13:15:00,
2013-02-23 05:20:00,40.1,35.9,30.31,SSE,158,0.4,2.0,85,0.00,,,0.00,WUHU216HW,2013-02-23 13:20:00,
2013-02-23 05:25:00,40.1,35.9,30.32,NNW,338,0.0,2.0,85,0.00,,,0.00,WUHU216HW,2013-02-23 13:25:00,
2013-02-23 05:30:00,40.3,36.1,30.32,SSW,203,1.6,3.4,85,0.00,,,0.00,WUHU216HW,2013-02-23 13:30:00,
2013-02-23 05:35:00,40.3,36.1,30.32,WSW,248,0.4,3.4,85,0.00,,,0.00,WUHU216HW,2013-02-23 13:35:00,
2013-02-23 05:40:00,40.3,36.1,30.32,SSW,203,2.7,2.7,85,0.00,,,0.00,WUHU216HW,2013-02-23 13:40:00,
2013-02-23 05:45:00,40.3,36.1,30.32,SW,225,0.2,4.0,85,0.00,,,0.00,WUHU216HW,2013-02-23 13:45:00,
2013-02-23 05:50:00,40.3,36.1,30.32,NE,45,1.1,4.0,85,0.00,,,0.00,WUHU216HW,2013-02-23 13:50:00,
2013-02-23 05:55:00,40.3,36.1,30.32,SSW,203,1.1,2.9,85,0.00,,,0.00,WUHU216HW,2013-02-23 13:55:00,
2013-02-23 06:00:00,40.3,36.5,30.33,SE,135,0.2,2.9,86,0.00,,,0.00,WUHU216HW,2013-02-23 14:00:00,
2013-02-23 06:05:00,40.3,36.1,30.34,East,90,0.0,0.9,85,0.00,,,0.00,WUHU216HW,2013-02-23 14:05:00,
2013-02-23 06:10:00,40.1,35.9,30.34,East,90,0.0,0.0,85,0.00,,,0.00,WUHU216HW,2013-02-23 14:10:00,
2013-02-23 06:15:00,40.1,36.3,30.34,SSW,203,0.4,1.1,86,0.00,,,0.00,WUHU216HW,2013-02-23 14:15:00,
2013-02-23 06:20:00,40.3,36.5,30.34,SE,135,0.0,1.6,86,0.00,,,0.00,WUHU216HW,2013-02-23 14:20:00,
2013-02-23 06:25:00,40.3,36.5,30.35,SE,135,0.0,1.6,86,0.00,,,0.00,WUHU216HW,2013-02-23 14:25:00,
2013-02-23 06:30:00,40.3,36.5,30.35,SE,135,0.0,0.0,86,0.00,,,0.00,WUHU216HW,2013-02-23 14:30:00,
2013-02-23 06:35:00,40.3,36.5,30.35,SSW,203,1.3,1.3,86,0.00,,,0.00,WUHU216HW,2013-02-23 14:35:00,
2013-02-23 06:40:00,40.3,36.5,30.36,ESE,113,0.0,1.3,86,0.00,,,0.00,WUHU216HW,2013-02-23 14:40:00,
2013-02-23 06:45:00,40.3,36.5,30.36,WSW,248,0.7,1.3,86,0.00,,,0.00,WUHU216HW,2013-02-23 14:45:00,
2013-02-23 06:50:00,40.5,36.6,30.36,SW,225,0.0,0.9,86,0.00,,,0.00,WUHU216HW,2013-02-23 14:50:00,
2013-02-23 06:55:00,40.5,36.6,30.37,SSW,203,0.0,2.0,86,0.00,,,0.00,WUHU216HW,2013-02-23 14:55:00,
2013-02-23 07:00:00,40.5,36.6,30.37,SSW,203,0.0,2.0,86,0.00,,,0.00,WUHU216HW,2013-02-23 15:00:00,
2013-02-23 07:05:00,40.7,36.8,30.37,SW,225,0.0,1.6,86,0.00,,,0.00,WUHU216HW,2013-02-23 15:05:00,
2013-02-23 07:10:00,40.7,36.8,30.37,SW,225,0.0,1.1,86,0.00,,,0.00,WUHU216HW,2013-02-23 15:10:00,
2013-02-23 07:15:00,40.7,36.8,30.37,South,180,0.7,1.1,86,0.00,,,0.00,WUHU216HW,2013-02-23 15:15:00,
2013-02-23 07:20:00,40.7,36.8,30.38,NW,315,0.0,0.9,86,0.00,,,0.00,WUHU216HW,2013-02-23 15:20:00,
2013-02-23 07:25:00,40.7,36.8,30.38,South,180,0.0,0.9,86,0.00,,,0.00,WUHU216HW,2013-02-23 15:25:00,
2013-02-23 07:30:00,40.7,36.8,30.39,SW,225,0.0,0.7,86,0.00,,,0.00,WUHU216HW,2013-02-23 15:30:00,
2013-02-23 07:35:00,40.7,36.8,30.39,South,180,0.0,0.7,86,0.00,,,0.00,WUHU216HW,2013-02-23 15:35:00,
2013-02-23 07:40:00,40.7,36.8,30.38,SW,225,0.4,0.4,86,0.00,,,0.00,WUHU216HW,2013-02-23 15:40:00,
2013-02-23 07:45:00,40.7,36.8,30.38,SW,225,0.7,0.7,86,0.00,,,0.00,WUHU216HW,2013-02-23 15:45:00,
2013-02-23 07:50:00,40.9,36.9,30.39,West,270,0.0,0.9,86,0.00,,,0.00,WUHU216HW,2013-02-23 15:50:00,
2013-02-23 07:55:00,40.9,36.9,30.40,SSW,203,0.7,2.5,86,0.00,,,0.00,WUHU216HW,2013-02-23 15:55:00,
2013-02-23 08:00:00,41.0,37.1,30.39,SSE,158,0.2,2.5,86,0.00,,,0.00,WUHU216HW,2013-02-23 16:00:00,
2013-02-23 08:05:00,41.0,37.1,30.39,SSE,158,0.0,1.1,86,0.00,,,0.00,WUHU216HW,2013-02-23 16:05:00,
2013-02-23 08:10:00,41.2,37.3,30.40,SW,225,1.1,1.3,86,0.00,,,0.00,WUHU216HW,2013-02-23 16:10:00,
2013-02-23 08:15:00,41.4,37.2,30.40,SSW,203,1.8,1.8,85,0.00,,,0.00,WUHU216HW,2013-02-23 16:15:00,
2013-02-23 08:20:00,41.4,37.2,30.40,South,180,1.1,3.1,85,0.00,,,0.00,WUHU216HW,2013-02-23 16:20:00,
2013-02-23 08:25:00,41.4,37.2,30.41,South,180,1.8,3.1,85,0.00,,,0.00,WUHU216HW,2013-02-23 16:25:00,
2013-02-23 08:30:00,41.6,37.4,30.41,WSW,248,1.1,1.8,85,0.00,,,0.00,WUHU216HW,2013-02-23 16:30:00,
2013-02-23 08:35:00,41.6,37.4,30.42,SW,225,1.1,1.8,85,0.00,,,0.00,WUHU216HW,2013-02-23 16:35:00,
2013-02-23 08:40:00,41.8,37.8,30.42,SSW,203,2.5,2.5,86,0.00,,,0.00,WUHU216HW,2013-02-23 16:40:00,
2013-02-23 08:45:00,41.9,38.0,30.42,SSW,203,0.9,2.9,86,0.00,,,0.00,WUHU216HW,2013-02-23 16:45:00,
2013-02-23 08:50:00,41.9,37.7,30.43,SW,225,0.4,3.6,85,0.00,,,0.00,WUHU216HW,2013-02-23 16:50:00,
2013-02-23 08:55:00,41.9,37.7,30.43,South,180,0.0,3.6,85,0.00,,,0.00,WUHU216HW,2013-02-23 16:55:00,
2013-02-23 09:00:00,42.1,37.9,30.43,WSW,248,1.8,3.4,85,0.00,,,0.00,WUHU216HW,2013-02-23 17:00:00,
2013-02-23 09:05:00,42.1,37.9,30.44,SW,225,0.4,2.0,85,0.00,,,0.00,WUHU216HW,2013-02-23 17:05:00,
2013-02-23 09:10:00,42.3,38.3,30.44,SSW,203,1.1,1.1,86,0.00,,,0.00,WUHU216HW,2013-02-23 17:10:00,
2013-02-23 09:15:00,42.3,38.1,30.44,South,180,2.0,5.4,85,0.00,,,0.00,WUHU216HW,2013-02-23 17:15:00,
2013-02-23 09:20:00,42.5,38.3,30.45,SSE,158,2.7,5.4,85,0.00,,,0.00,WUHU216HW,2013-02-23 17:20:00,
2013-02-23 09:25:00,42.5,38.3,30.45,SW,225,1.1,2.7,85,0.00,,,0.00,WUHU216HW,2013-02-23 17:25:00,
2013-02-23 09:30:00,42.5,38.3,30.45,WSW,248,0.0,1.6,85,0.00,,,0.00,WUHU216HW,2013-02-23 17:30:00,
2013-02-23 09:35:00,42.5,38.3,30.45,WSW,248,4.5,4.5,85,0.00,,,0.00,WUHU216HW,2013-02-23 17:35:00,
2013-02-23 09:40:00,42.5,38.3,30.46,WSW,248,0.2,4.5,85,0.00,,,0.00,WUHU216HW,2013-02-23 17:40:00,
2013-02-23 09:45:00,42.7,38.4,30.46,WSW,248,0.4,3.1,85,0.00,,,0.00,WUHU216HW,2013-02-23 17:45:00,
2013-02-23 09:50:00,42.7,38.4,30.46,SW,225,0.9,3.1,85,0.00,,,0.00,WUHU216HW,2013-02-23 17:50:00,
2013-02-23 09:55:00,42.7,38.4,30.46,SSW,203,0.0,2.2,85,0.00,,,0.00,WUHU216HW,2013-02-23 17:55:00,
2013-02-23 10:00:00,42.8,38.6,30.46,South,180,0.7,2.2,85,0.00,,,0.00,WUHU216HW,2013-02-23 18:00:00,
2013-02-23 10:05:00,42.8,38.6,30.47,SSW,203,0.2,2.5,85,0.00,,,0.00,WUHU216HW,2013-02-23 18:05:00,
2013-02-23 10:10:00,43.0,38.8,30.47,SSW,203,1.8,2.9,85,0.00,,,0.00,WUHU216HW,2013-02-23 18:10:00,
2013-02-23 10:15:00,43.0,38.8,30.47,SSW,203,2.0,3.1,85,0.00,,,0.00,WUHU216HW,2013-02-23 18:15:00,
2013-02-23 10:20:00,43.2,39.0,30.48,South,180,1.1,3.1,85,0.00,,,0.00,WUHU216HW,2013-02-23 18:20:00,
2013-02-23 10:25:00,43.2,39.0,30.48,SSE,158,2.5,3.1,85,0.00,,,0.00,WUHU216HW,2013-02-23 18:25:00,
2013-02-23 10:30:00,43.4,39.2,30.48,SW,225,0.0,3.1,85,0.00,,,0.00,WUHU216HW,2013-02-23 18:30:00,
2013-02-23 10:35:00,43.6,39.3,30.48,SW,225,1.8,1.8,85,0.00,,,0.00,WUHU216HW,2013-02-23 18:35:00,
2013-02-23 10:40:00,43.7,39.3,30.48,South,180,1.8,3.4,84,0.00,,,0.00,WUHU216HW,2013-02-23 18:40:00,
2013-02-23 10:45:00,43.7,39.3,30.48,SSE,158,0.9,3.4,84,0.00,,,0.00,WUHU216HW,2013-02-23 18:45:00,
2013-02-23 10:50:00,43.9,39.4,30.48,SW,225,3.6,3.6,84,0.00,,,0.00,WUHU216HW,2013-02-23 18:50:00,
2013-02-23 10:55:00,44.1,39.2,30.49,South,180,1.1,3.8,83,0.00,,,0.00,WUHU216HW,2013-02-23 18:55:00,
2013-02-23 11:00:00,44.3,39.2,30.49,WSW,248,1.6,3.8,82,0.00,,,0.00,WUHU216HW,2013-02-23 19:00:00,
2013-02-23 11:05:00,44.3,39.2,30.49,SW,225,0.0,4.0,82,0.00,,,0.00,WUHU216HW,2013-02-23 19:05:00,
2013-02-23 11:10:00,44.5,39.3,30.50,SSE,158,0.0,4.0,82,0.00,,,0.00,WUHU216HW,2013-02-23 19:10:00,
2013-02-23 11:15:00,44.8,39.7,30.50,SW,225,2.5,3.1,82,0.00,,,0.00,WUHU216HW,2013-02-23 19:15:00,
2013-02-23 11:20:00,45.0,39.5,30.50,SSW,203,1.3,4.3,81,0.00,,,0.00,WUHU216HW,2013-02-23 19:20:00,
2013-02-23 11:25:00,45.0,38.9,30.50,SSW,203,0.7,5.1,79,0.00,,,0.00,WUHU216HW,2013-02-23 19:25:00,
2013-02-23 11:30:00,45.0,39.2,30.50,SSE,158,0.4,5.1,80,0.00,,,0.00,WUHU216HW,2013-02-23 19:30:00,
2013-02-23 11:35:00,45.0,39.2,30.50,South,180,1.8,4.3,80,0.00,,,0.00,WUHU216HW,2013-02-23 19:35:00,
2013-02-23 11:40:00,45.0,38.9,30.50,SSE,158,1.1,3.4,79,0.00,,,0.00,WUHU216HW,2013-02-23 19:40:00,
2013-02-23 11:45:00,45.0,38.9,30.51,ENE,68,0.7,4.5,79,0.00,,,0.00,WUHU216HW,2013-02-23 19:45:00,
2013-02-23 11:50:00,45.4,39.6,30.51,South,180,1.8,4.5,80,0.00,,,0.00,WUHU216HW,2013-02-23 19:50:00,
2013-02-23 11:55:00,45.7,39.0,30.51,SSW,203,2.7,4.7,77,0.00,,,0.00,WUHU216HW,2013-02-23 19:55:00,
2013-02-23 12:00:00,45.9,39.2,30.51,SSW,203,2.5,5.4,77,0.00,,,0.00,WUHU216HW,2013-02-23 20:00:00,
2013-02-23 12:05:00,46.1,39.3,30.51,SSE,158,1.8,5.4,77,0.00,,,0.00,WUHU216HW,2013-02-23 20:05:00,
2013-02-23 12:10:00,46.1,39.3,30.51,South,180,1.1,2.5,77,0.00,,,0.00,WUHU216HW,2013-02-23 20:10:00,
2013-02-23 12:15:00,46.1,39.3,30.51,SSE,158,1.1,2.7,77,0.00,,,0.00,WUHU216HW,2013-02-23 20:15:00,
2013-02-23 12:21:00,46.3,39.5,30.51,WNW,293,0.2,3.4,77,0.00,,,0.00,WUHU216HW,2013-02-23 20:21:00,
2013-02-23 12:26:00,46.3,39.5,30.52,NE,45,0.7,3.4,77,0.00,,,0.00,WUHU216HW,2013-02-23 20:26:00,
2013-02-23 12:31:00,46.4,39.7,30.51,South,180,2.0,3.1,77,0.00,,,0.00,WUHU216HW,2013-02-23 20:31:00,
2013-02-23 12:36:00,46.6,40.1,30.51,SW,225,1.8,4.7,78,0.00,,,0.00,WUHU216HW,2013-02-23 20:36:00,
2013-02-23 12:40:00,46.6,39.5,30.51,SW,225,1.6,4.7,76,0.00,,,0.00,WUHU216HW,2013-02-23 20:40:00,
2013-02-23 12:46:00,46.6,39.5,30.51,SW,225,2.0,3.4,76,0.00,,,0.00,WUHU216HW,2013-02-23 20:46:00,
2013-02-23 12:50:00,46.8,39.6,30.51,SW,225,1.1,3.4,76,0.00,,,0.00,WUHU216HW,2013-02-23 20:50:00,
2013-02-23 12:55:00,46.6,39.5,30.51,SW,225,2.7,3.1,76,0.00,,,0.00,WUHU216HW,2013-02-23 20:55:00,
2013-02-23 13:00:00,46.8,39.3,30.51,SSW,203,1.8,3.1,75,0.00,,,0.00,WUHU216HW,2013-02-23 21:00:00,
2013-02-23 13:05:00,46.8,40.0,30.51,SW,225,1.1,2.0,77,0.00,,,0.00,WUHU216HW,2013-02-23 21:05:00,
2013-02-23 13:10:00,47.2,40.3,30.51,SW,225,0.4,2.0,77,0.00,,,0.00,WUHU216HW,2013-02-23 21:10:00,
2013-02-23 13:15:00,47.2,40.0,30.51,SW,225,0.7,1.1,76,0.00,,,0.00,WUHU216HW,2013-02-23 21:15:00,
2013-02-23 13:20:00,47.2,39.6,30.51,SSW,203,0.9,1.8,75,0.00,,,0.00,WUHU216HW,2013-02-23 21:20:00,
2013-02-23 13:26:00,47.2,39.6,30.52,SSW,203,0.0,1.8,75,0.00,,,0.00,WUHU216HW,2013-02-23 21:26:00,
2013-02-23 13:31:00,47.2,38.6,30.52,WSW,248,0.0,1.1,72,0.00,,,0.00,WUHU216HW,2013-02-23 21:31:00,
2013-02-23 13:35:00,47.2,39.0,30.52,SSW,203,1.1,2.2,73,0.00,,,0.00,WUHU216HW,2013-02-23 21:35:00,
2013-02-23 13:40:00,47.2,39.2,30.52,WNW,293,0.0,2.2,74,0.00,,,0.00,WUHU216HW,2013-02-23 21:40:00,
2013-02-23 13:45:00,47.2,39.6,30.52,SSW,203,0.0,1.1,75,0.00,,,0.00,WUHU216HW,2013-02-23 21:45:00,
2013-02-23 13:50:00,47.2,39.6,30.52,South,180,1.8,1.8,75,0.00,,,0.00,WUHU216HW,2013-02-23 21:50:00,
2013-02-23 13:55:00,47.3,39.8,30.52,SW,225,0.0,1.8,75,0.00,,,0.00,WUHU216HW,2013-02-23 21:55:00,
2013-02-23 14:00:00,47.3,39.8,30.52,SW,225,0.0,1.3,75,0.00,,,0.00,WUHU216HW,2013-02-23 22:00:00,
2013-02-23 14:05:00,47.5,40.0,30.52,SW,225,0.7,1.1,75,0.00,,,0.00,WUHU216HW,2013-02-23 22:05:00,
2013-02-23 14:11:00,47.5,39.6,30.53,South,180,1.8,2.0,74,0.00,,,0.00,WUHU216HW,2013-02-23 22:11:00,
2013-02-23 14:16:00,47.5,39.6,30.53,South,180,0.0,2.0,74,0.00,,,0.00,WUHU216HW,2013-02-23 22:16:00,
2013-02-23 14:21:00,47.7,39.4,30.53,WNW,293,0.0,1.6,73,0.00,,,0.00,WUHU216HW,2013-02-23 22:21:00,
2013-02-23 14:26:00,47.7,39.4,30.53,SSW,203,1.1,2.5,73,0.00,,,0.00,WUHU216HW,2013-02-23 22:26:00,
2013-02-23 14:31:00,47.9,39.6,30.53,SW,225,0.0,2.5,73,0.00,,,0.00,WUHU216HW,2013-02-23 22:31:00,
2013-02-23 14:36:00,47.9,39.6,30.53,WNW,293,0.4,1.8,73,0.00,,,0.00,WUHU216HW,2013-02-23 22:36:00,
2013-02-23 14:41:00,47.9,39.6,30.54,South,180,2.5,2.5,73,0.00,,,0.00,WUHU216HW,2013-02-23 22:41:00,
2013-02-23 14:46:00,47.9,39.6,30.53,South,180,1.8,2.5,73,0.00,,,0.00,WUHU216HW,2013-02-23 22:46:00,
2013-02-23 14:51:00,47.9,39.6,30.53,South,180,1.8,1.8,73,0.00,,,0.00,WUHU216HW,2013-02-23 22:51:00,
2013-02-23 14:59:00,48.6,38.5,30.54,NNW,338,0.9,0.9,68,0.00,,,0.00,WUHU216HW,2013-02-23 22:59:00,
2013-02-23 15:04:00,48.4,39.1,30.54,SSE,158,1.1,1.1,70,0.00,,,0.00,WUHU216HW,2013-02-23 23:04:00,
2013-02-23 15:09:00,48.4,39.4,30.55,WSW,248,0.4,1.3,71,0.00,,,0.00,WUHU216HW,2013-02-23 23:09:00,
2013-02-23 15:14:00,48.2,39.3,30.55,SW,225,0.0,1.3,71,0.00,,,0.00,WUHU216HW,2013-02-23 23:14:00,
2013-02-23 15:19:00,48.2,39.3,30.55,SSE,158,0.0,0.9,71,0.00,,,0.00,WUHU216HW,2013-02-23 23:19:00,
2013-02-23 15:24:00,48.2,38.5,30.55,North,0,0.4,1.1,69,0.00,,,0.00,WUHU216HW,2013-02-23 23:24:00,
2013-02-23 15:29:00,48.1,38.7,30.55,North,0,0.0,1.1,70,0.00,,,0.00,WUHU216HW,2013-02-23 23:29:00,
2013-02-23 15:34:00,48.2,38.9,30.55,North,0,0.0,1.1,70,0.00,,,0.00,WUHU216HW,2013-02-23 23:34:00,
2013-02-23 15:39:00,48.1,38.7,30.55,North,0,0.7,1.6,70,0.00,,,0.00,WUHU216HW,2013-02-23 23:39:00,
2013-02-23 15:44:00,48.1,38.0,30.55,NNW,338,2.0,3.1,68,0.00,,,0.00,WUHU216HW,2013-02-23 23:44:00,
2013-02-23 15:49:00,47.9,38.5,30.56,NW,315,0.0,3.1,70,0.00,,,0.00,WUHU216HW,2013-02-23 23:49:00,
2013-02-23 15:54:00,47.9,37.5,30.55,NNE,23,0.9,2.0,67,0.00,,,0.00,WUHU216HW,2013-02-23 23:54:00,
2013-02-23 15:59:00,47.9,37.8,30.56,NNE,23,1.1,1.8,68,0.00,,,0.00,WUHU216HW,2013-02-23 23:59:00,
2013-02-23 16:04:00,47.9,37.5,30.56,North,0,1.8,1.8,67,0.00,,,0.00,WUHU216HW,2013-02-24 00:04:00,
2013-02-23 16:09:00,47.7,37.6,30.56,SSE,158,0.0,1.8,68,0.00,,,0.00,WUHU216HW,2013-02-24 00:09:00,
2013-02-23 16:14:00,47.7,38.0,30.56,North,0,0.0,3.4,69,0.00,,,0.00,WUHU216HW,2013-02-24 00:14:00,
2013-02-23 16:19:00,47.7,38.0,30.56,NNE,23,0.0,3.4,69,0.00,,,0.00,WUHU216HW,2013-02-24 00:19:00,
2013-02-23 16:24:00,47.7,38.0,30.56,North,0,0.0,1.8,69,0.00,,,0.00,WUHU216HW,2013-02-24 00:24:00,
2013-02-23 16:29:00,47.7,38.0,30.56,NNE,23,0.0,1.8,69,0.00,,,0.00,WUHU216HW,2013-02-24 00:29:00,
2013-02-23 16:34:00,47.5,37.9,30.56,NNE,23,0.2,1.3,69,0.00,,,0.00,WUHU216HW,2013-02-24 00:34:00,
2013-02-23 16:39:00,47.5,38.3,30.56,NNE,23,0.0,0.2,70,0.00,,,0.00,WUHU216HW,2013-02-24 00:39:00,
2013-02-23 16:44:00,47.5,38.3,30.56,NNE,23,0.0,0.0,70,0.00,,,0.00,WUHU216HW,2013-02-24 00:44:00,
2013-02-23 16:59:00,46.8,37.9,30.57,North,0,0.0,0.0,71,0.00,,,0.00,WUHU216HW,2013-02-24 00:59:00,
2013-02-23 17:04:00,46.8,37.9,30.57,North,0,0.0,0.0,71,0.00,,,0.00,WUHU216HW,2013-02-24 01:04:00,
2013-02-23 17:09:00,46.4,38.0,30.57,North,0,0.0,0.0,72,0.00,,,0.00,WUHU216HW,2013-02-24 01:09:00,
2013-02-23 17:14:00,46.3,37.8,30.57,North,0,0.0,0.0,72,0.00,,,0.00,WUHU216HW,2013-02-24 01:14:00,
2013-02-23 17:19:00,46.1,37.9,30.58,North,0,0.0,0.0,73,0.00,,,0.00,WUHU216HW,2013-02-24 01:19:00,
2013-02-23 17:24:00,46.1,37.9,30.58,SW,225,0.4,1.3,73,0.00,,,0.00,WUHU216HW,2013-02-24 01:24:00,
2013-02-23 17:29:00,46.1,37.9,30.58,WSW,248,0.0,1.3,73,0.00,,,0.00,WUHU216HW,2013-02-24 01:29:00,
2013-02-23 17:34:00,45.9,38.1,30.59,NW,315,0.4,0.4,74,0.00,,,0.00,WUHU216HW,2013-02-24 01:34:00,
2013-02-23 17:39:00,45.7,37.9,30.59,NW,315,0.0,0.4,74,0.00,,,0.00,WUHU216HW,2013-02-24 01:39:00,
2013-02-23 17:44:00,45.5,38.1,30.59,NW,315,0.0,0.0,75,0.00,,,0.00,WUHU216HW,2013-02-24 01:44:00,
2013-02-23 17:49:00,45.5,38.1,30.59,NW,315,0.0,0.0,75,0.00,,,0.00,WUHU216HW,2013-02-24 01:49:00,
2013-02-23 17:54:00,45.4,37.5,30.60,NW,315,0.0,0.0,74,0.00,,,0.00,WUHU216HW,2013-02-24 01:54:00,
2013-02-23 17:59:00,45.2,37.7,30.60,NW,315,0.0,0.0,75,0.00,,,0.00,WUHU216HW,2013-02-24 01:59:00,
2013-02-23 18:04:00,45.0,37.5,30.60,NW,315,0.0,0.0,75,0.00,,,0.00,WUHU216HW,2013-02-24 02:04:00,
2013-02-23 18:09:00,44.8,37.4,30.60,NW,315,0.0,0.0,75,0.00,,,0.00,WUHU216HW,2013-02-24 02:09:00,
2013-02-23 18:14:00,44.6,37.5,30.61,NW,315,0.0,0.0,76,0.00,,,0.00,WUHU216HW,2013-02-24 02:14:00,
2013-02-23 18:19:00,44.5,37.4,30.61,NW,315,0.0,0.0,76,0.00,,,0.00,WUHU216HW,2013-02-24 02:19:00,
2013-02-23 18:24:00,44.5,37.7,30.61,SW,225,0.0,1.8,77,0.00,,,0.00,WUHU216HW,2013-02-24 02:24:00,
2013-02-23 18:29:00,44.3,37.5,30.61,WNW,293,0.0,1.8,77,0.00,,,0.00,WUHU216HW,2013-02-24 02:29:00,
2013-02-23 18:34:00,44.3,37.5,30.61,SW,225,0.0,0.4,77,0.00,,,0.00,WUHU216HW,2013-02-24 02:34:00,
2013-02-23 18:39:00,44.3,37.5,30.61,SW,225,0.0,0.4,77,0.00,,,0.00,WUHU216HW,2013-02-24 02:39:00,
2013-02-23 18:44:00,44.3,37.5,30.61,SW,225,0.0,0.0,77,0.00,,,0.00,WUHU216HW,2013-02-24 02:44:00,
2013-02-23 18:59:00,44.1,38.0,30.62,South,180,0.4,0.4,79,0.00,,,0.00,WUHU216HW,2013-02-24 02:59:00,
2013-02-23 19:04:00,43.9,38.2,30.62,SSW,203,0.4,1.8,80,0.00,,,0.00,WUHU216HW,2013-02-24 03:04:00,
2013-02-23 19:09:00,43.7,38.0,30.62,WSW,248,0.0,1.8,80,0.00,,,0.00,WUHU216HW,2013-02-24 03:09:00,
2013-02-23 19:14:00,43.7,38.0,30.63,WSW,248,0.0,1.1,80,0.00,,,0.00,WUHU216HW,2013-02-24 03:14:00,
2013-02-23 19:19:00,43.6,37.8,30.63,WSW,248,0.0,0.0,80,0.00,,,0.00,WUHU216HW,2013-02-24 03:19:00,
2013-02-23 19:24:00,43.6,37.8,30.63,South,180,0.9,0.9,80,0.00,,,0.00,WUHU216HW,2013-02-24 03:24:00,
2013-02-23 19:29:00,43.6,38.1,30.63,SSE,158,0.4,2.0,81,0.00,,,0.00,WUHU216HW,2013-02-24 03:29:00,
2013-02-23 19:34:00,43.2,37.7,30.63,SW,225,2.9,2.9,81,0.00,,,0.00,WUHU216HW,2013-02-24 03:34:00,
2013-02-23 19:39:00,43.0,37.9,30.63,SE,135,0.0,2.9,82,0.00,,,0.00,WUHU216HW,2013-02-24 03:39:00,
2013-02-23 19:44:00,42.8,37.7,30.64,SSW,203,0.0,2.2,82,0.00,,,0.00,WUHU216HW,2013-02-24 03:44:00,
2013-02-23 19:49:00,42.8,38.0,30.64,SW,225,0.4,2.2,83,0.00,,,0.00,WUHU216HW,2013-02-24 03:49:00,
2013-02-23 19:54:00,42.8,38.0,30.65,SSW,203,0.4,1.6,83,0.00,,,0.00,WUHU216HW,2013-02-24 03:54:00,
2013-02-23 19:59:00,42.5,38.3,30.64,South,180,0.4,1.8,85,0.00,,,0.00,WUHU216HW,2013-02-24 03:59:00,
2013-02-23 20:04:00,42.5,38.3,30.65,SW,225,0.4,3.1,85,0.00,,,0.00,WUHU216HW,2013-02-24 04:04:00,
2013-02-23 20:09:00,42.3,38.1,30.65,ENE,68,0.4,3.1,85,0.00,,,0.00,WUHU216HW,2013-02-24 04:09:00,
2013-02-23 20:14:00,42.1,37.9,30.65,WSW,248,1.6,2.9,85,0.00,,,0.00,WUHU216HW,2013-02-24 04:14:00,
2013-02-23 20:19:00,42.1,37.9,30.65,SW,225,0.0,1.6,85,0.00,,,0.00,WUHU216HW,2013-02-24 04:19:00,
2013-02-23 20:24:00,42.1,37.9,30.65,NNW,338,0.0,0.9,85,0.00,,,0.00,WUHU216HW,2013-02-24 04:24:00,
2013-02-23 20:29:00,42.1,37.9,30.65,NNW,338,0.0,0.9,85,0.00,,,0.00,WUHU216HW,2013-02-24 04:29:00,
2013-02-23 20:52:00,41.9,37.7,30.65,SW,225,0.0,0.0,85,0.00,,,0.00,WUHU216HW,2013-02-24 04:52:00,
2013-02-23 20:57:00,41.9,37.7,30.65,SW,225,1.6,1.6,85,0.00,,,0.00,WUHU216HW,2013-02-24 04:57:00,
2013-02-23 21:00:00,41.8,37.8,30.66,ESE,113,0.2,1.8,86,0.00,,,0.00,WUHU216HW,2013-02-24 05:00:00,
2013-02-23 21:05:00,41.9,37.7,30.66,SSW,203,0.2,1.8,85,0.00,,,0.00,WUHU216HW,2013-02-24 05:05:00,
2013-02-23 21:10:00,41.9,37.7,30.66,South,180,0.0,1.1,85,0.00,,,0.00,WUHU216HW,2013-02-24 05:10:00,
2013-02-23 21:15:00,41.9,37.7,30.66,SSW,203,1.1,1.1,85,0.00,,,0.00,WUHU216HW,2013-02-24 05:15:00,
2013-02-23 21:20:00,41.8,37.5,30.66,South,180,0.9,1.1,85,0.00,,,0.00,WUHU216HW,2013-02-24 05:20:00,
2013-02-23 21:25:00,41.9,37.7,30.66,SSW,203,3.6,3.6,85,0.00,,,0.00,WUHU216HW,2013-02-24 05:25:00,
2013-02-23 21:30:00,41.8,37.5,30.66,SW,225,0.9,3.6,85,0.00,,,0.00,WUHU216HW,2013-02-24 05:30:00,
2013-02-23 21:35:00,41.8,37.5,30.66,West,270,0.4,2.5,85,0.00,,,0.00,WUHU216HW,2013-02-24 05:35:00,
2013-02-23 21:40:00,41.9,37.7,30.66,SSW,203,1.3,4.0,85,0.00,,,0.00,WUHU216HW,2013-02-24 05:40:00,
2013-02-23 21:45:00,41.9,37.7,30.66,SSW,203,1.1,4.0,85,0.00,,,0.00,WUHU216HW,2013-02-24 05:45:00,
2013-02-23 21:50:00,41.9,37.7,30.67,West,270,0.0,1.1,85,0.00,,,0.00,WUHU216HW,2013-02-24 05:50:00,
2013-02-23 21:55:00,41.9,37.7,30.66,SW,225,3.4,3.4,85,0.00,,,0.00,WUHU216HW,2013-02-24 05:55:00,
2013-02-23 22:00:00,41.9,37.5,30.67,SW,225,0.2,3.4,84,0.00,,,0.00,WUHU216HW,2013-02-24 06:00:00,
2013-02-23 22:05:00,41.9,37.5,30.67,SSW,203,1.1,2.7,84,0.00,,,0.00,WUHU216HW,2013-02-24 06:05:00,
2013-02-23 22:10:00,41.9,37.5,30.67,SSW,203,0.2,2.7,84,0.00,,,0.00,WUHU216HW,2013-02-24 06:10:00,
2013-02-23 22:15:00,41.9,37.1,30.66,SSW,203,0.0,1.1,83,0.00,,,0.00,WUHU216HW,2013-02-24 06:15:00,
2013-02-23 22:20:00,41.9,37.1,30.66,NW,315,0.0,2.7,83,0.00,,,0.00,WUHU216HW,2013-02-24 06:20:00,
2013-02-23 22:25:00,41.9,37.1,30.66,WNW,293,0.7,2.7,83,0.00,,,0.00,WUHU216HW,2013-02-24 06:25:00,
2013-02-23 22:30:00,41.9,37.1,30.67,South,180,0.2,2.5,83,0.00,,,0.00,WUHU216HW,2013-02-24 06:30:00,
2013-02-23 22:35:00,41.9,37.5,30.67,SW,225,0.9,1.8,84,0.00,,,0.00,WUHU216HW,2013-02-24 06:35:00,
2013-02-23 22:40:00,41.9,37.5,30.67,SE,135,0.2,2.0,84,0.00,,,0.00,WUHU216HW,2013-02-24 06:40:00,
2013-02-23 22:45:00,41.8,37.3,30.67,SSE,158,0.0,2.0,84,0.00,,,0.00,WUHU216HW,2013-02-24 06:45:00,
2013-02-23 22:50:00,41.8,37.3,30.67,SSW,203,0.4,1.1,84,0.00,,,0.00,WUHU216HW,2013-02-24 06:50:00,
2013-02-23 22:55:00,41.8,37.5,30.67,SW,225,0.0,1.1,85,0.00,,,0.00,WUHU216HW,2013-02-24 06:55:00,
2013-02-23 23:00:00,41.8,37.5,30.67,SW,225,0.0,1.1,85,0.00,,,0.00,WUHU216HW,2013-02-24 07:00:00,
2013-02-23 23:05:00,41.8,37.5,30.68,SW,225,0.0,1.1,85,0.00,,,0.00,WUHU216HW,2013-02-24 07:05:00,
2013-02-23 23:10:00,41.8,37.5,30.68,SW,225,0.0,0.7,85,0.00,,,0.00,WUHU216HW,2013-02-24 07:10:00,
2013-02-23 23:15:00,41.8,37.3,30.67,South,180,0.0,0.4,84,0.00,,,0.00,WUHU216HW,2013-02-24 07:15:00,
2013-02-23 23:20:00,41.8,37.5,30.68,SSW,203,0.0,0.4,85,0.00,,,0.00,WUHU216HW,2013-02-24 07:20:00,
2013-02-23 23:25:00,41.8,37.5,30.68,SSW,203,0.0,0.4,85,0.00,,,0.00,WUHU216HW,2013-02-24 07:25:00,
2013-02-23 23:30:00,41.8,37.3,30.68,SSW,203,0.0,0.2,84,0.00,,,0.00,WUHU216HW,2013-02-24 07:30:00,
2013-02-23 23:35:00,41.8,37.5,30.68,SW,225,0.0,0.9,85,0.00,,,0.00,WUHU216HW,2013-02-24 07:35:00,
2013-02-23 23:40:00,41.8,37.5,30.68,SW,225,0.0,0.9,85,0.00,,,0.00,WUHU216HW,2013-02-24 07:40:00,
2013-02-23 23:45:00,41.8,37.5,30.68,SSW,203,0.0,2.2,85,0.00,,,0.00,WUHU216HW,2013-02-24 07:45:00,
2013-02-23 23:50:00,41.8,37.3,30.68,SSW,203,0.0,2.2,84,0.00,,,0.00,WUHU216HW,2013-02-24 07:50:00,
2013-02-23 23:55:00,41.6,37.1,30.68,SSW,203,0.0,0.7,84,0.00,,,0.00,WUHU216HW,2013-02-24 07:55:00,